sensor_id;sensor_type;location;lat;lon;timestamp;temperature;humidity
6988;DHT22;3534;49.960;8.018;2023-03-05T00:01:51;7.30;99.90
6988;DHT22;3534;49.960;8.018;2023-03-05T00:04:18;7.40;99.90
6988;DHT22;3534;49.960;8.018;2023-03-05T00:06:45;7.40;99.90
6988;DHT22;3534;49.960;8.018;2023-03-05T00:09:12;7.50;99.90
6988;DHT22;3534;49.960;8.018;2023-03-05T00:11:39;7.50;99.90
6988;DHT22;3534;49.960;8.018;2023-03-05T00:14:09;7.50;99.90
6988;DHT22;3534;49.960;8.018;2023-03-05T00:16:36;7.60;99.90
6988;DHT22;3534;49.960;8.018;2023-03-05T00:19:02;7.70;99.90
6988;DHT22;3534;49.960;8.018;2023-03-05T00:21:32;7.60;99.90
6988;DHT22;3534;49.960;8.018;2023-03-05T00:24:01;7.70;99.90
6988;DHT22;3534;49.960;8.018;2023-03-05T00:26:29;7.80;99.90
6988;DHT22;3534;49.960;8.018;2023-03-05T00:28:58;7.80;99.90
6988;DHT22;3534;49.960;8.018;2023-03-05T00:31:29;7.90;99.90
6988;DHT22;3534;49.960;8.018;2023-03-05T00:33:58;8.00;99.90
6988;DHT22;3534;49.960;8.018;2023-03-05T00:36:31;8.00;99.90
6988;DHT22;3534;49.960;8.018;2023-03-05T00:38:58;8.00;99.90
6988;DHT22;3534;49.960;8.018;2023-03-05T00:41:26;7.90;99.90
6988;DHT22;3534;49.960;8.018;2023-03-05T00:43:53;7.80;99.90
6988;DHT22;3534;49.960;8.018;2023-03-05T00:46:20;7.80;99.90
6988;DHT22;3534;49.960;8.018;2023-03-05T00:48:48;7.80;99.90
6988;DHT22;3534;49.960;8.018;2023-03-05T00:51:15;7.80;99.90
6988;DHT22;3534;49.960;8.018;2023-03-05T00:53:42;7.80;99.90
6988;DHT22;3534;49.960;8.018;2023-03-05T00:56:08;7.70;99.90
6988;DHT22;3534;49.960;8.018;2023-03-05T00:58:35;7.60;99.90
6988;DHT22;3534;49.960;8.018;2023-03-05T01:01:02;7.60;99.90
6988;DHT22;3534;49.960;8.018;2023-03-05T01:03:30;7.70;99.90
6988;DHT22;3534;49.960;8.018;2023-03-05T01:05:59;7.80;99.90
6988;DHT22;3534;49.960;8.018;2023-03-05T01:08:26;7.90;99.90
6988;DHT22;3534;49.960;8.018;2023-03-05T01:10:53;7.90;99.90
6988;DHT22;3534;49.960;8.018;2023-03-05T01:13:20;8.00;99.90
6988;DHT22;3534;49.960;8.018;2023-03-05T01:15:47;8.00;99.90
6988;DHT22;3534;49.960;8.018;2023-03-05T01:18:16;8.00;99.90
6988;DHT22;3534;49.960;8.018;2023-03-05T01:20:43;8.10;99.90
6988;DHT22;3534;49.960;8.018;2023-03-05T01:23:11;8.00;99.90
6988;DHT22;3534;49.960;8.018;2023-03-05T01:25:38;8.10;99.90
6988;DHT22;3534;49.960;8.018;2023-03-05T01:28:05;8.10;99.90
6988;DHT22;3534;49.960;8.018;2023-03-05T01:30:32;8.20;99.90
6988;DHT22;3534;49.960;8.018;2023-03-05T01:32:59;8.10;99.90
6988;DHT22;3534;49.960;8.018;2023-03-05T01:35:26;8.10;99.90
6988;DHT22;3534;49.960;8.018;2023-03-05T01:37:53;8.10;99.90
6988;DHT22;3534;49.960;8.018;2023-03-05T01:40:24;8.00;99.90
6988;DHT22;3534;49.960;8.018;2023-03-05T01:42:56;8.00;99.90
6988;DHT22;3534;49.960;8.018;2023-03-05T01:45:24;7.80;99.90
6988;DHT22;3534;49.960;8.018;2023-03-05T01:47:51;7.80;99.90
6988;DHT22;3534;49.960;8.018;2023-03-05T01:50:20;7.70;99.90
6988;DHT22;3534;49.960;8.018;2023-03-05T01:52:51;7.80;99.90
6988;DHT22;3534;49.960;8.018;2023-03-05T01:55:23;7.80;99.90
6988;DHT22;3534;49.960;8.018;2023-03-05T01:57:53;7.80;99.90
6988;DHT22;3534;49.960;8.018;2023-03-05T02:00:24;7.80;99.90
6988;DHT22;3534;49.960;8.018;2023-03-05T02:02:52;7.80;99.90
6988;DHT22;3534;49.960;8.018;2023-03-05T02:05:23;7.90;99.90
6988;DHT22;3534;49.960;8.018;2023-03-05T02:07:53;7.90;99.90
6988;DHT22;3534;49.960;8.018;2023-03-05T02:10:24;8.00;99.90
6988;DHT22;3534;49.960;8.018;2023-03-05T02:12:52;8.10;99.90
6988;DHT22;3534;49.960;8.018;2023-03-05T02:15:20;8.10;99.90
6988;DHT22;3534;49.960;8.018;2023-03-05T02:17:47;8.20;99.90
6988;DHT22;3534;49.960;8.018;2023-03-05T02:20:16;8.20;99.90
6988;DHT22;3534;49.960;8.018;2023-03-05T02:22:44;8.20;99.90
6988;DHT22;3534;49.960;8.018;2023-03-05T02:25:14;8.30;99.90
6988;DHT22;3534;49.960;8.018;2023-03-05T02:27:45;8.30;99.90
6988;DHT22;3534;49.960;8.018;2023-03-05T02:30:14;8.30;99.90
6988;DHT22;3534;49.960;8.018;2023-03-05T02:32:41;8.30;99.90
6988;DHT22;3534;49.960;8.018;2023-03-05T02:35:08;8.30;99.90
6988;DHT22;3534;49.960;8.018;2023-03-05T02:37:35;8.30;99.90
6988;DHT22;3534;49.960;8.018;2023-03-05T02:40:04;8.30;99.90
6988;DHT22;3534;49.960;8.018;2023-03-05T02:42:31;8.20;99.90
6988;DHT22;3534;49.960;8.018;2023-03-05T02:44:58;8.20;99.90
6988;DHT22;3534;49.960;8.018;2023-03-05T02:47:25;8.20;99.90
6988;DHT22;3534;49.960;8.018;2023-03-05T02:49:52;8.20;99.90
6988;DHT22;3534;49.960;8.018;2023-03-05T02:52:19;8.10;99.90
6988;DHT22;3534;49.960;8.018;2023-03-05T02:54:47;8.00;99.90
6988;DHT22;3534;49.960;8.018;2023-03-05T02:57:16;8.00;99.90
6988;DHT22;3534;49.960;8.018;2023-03-05T02:59:42;8.00;99.90
6988;DHT22;3534;49.960;8.018;2023-03-05T03:02:09;8.10;99.90
6988;DHT22;3534;49.960;8.018;2023-03-05T03:04:36;8.10;99.90
6988;DHT22;3534;49.960;8.018;2023-03-05T03:07:02;8.10;99.90
6988;DHT22;3534;49.960;8.018;2023-03-05T03:09:29;8.10;99.90
6988;DHT22;3534;49.960;8.018;2023-03-05T03:11:56;8.10;99.90
6988;DHT22;3534;49.960;8.018;2023-03-05T03:14:24;8.00;99.90
6988;DHT22;3534;49.960;8.018;2023-03-05T03:16:51;7.90;99.90
6988;DHT22;3534;49.960;8.018;2023-03-05T03:19:17;7.80;99.90
6988;DHT22;3534;49.960;8.018;2023-03-05T03:21:44;7.80;99.90
6988;DHT22;3534;49.960;8.018;2023-03-05T03:24:11;7.80;99.90
6988;DHT22;3534;49.960;8.018;2023-03-05T03:26:37;7.80;99.90
6988;DHT22;3534;49.960;8.018;2023-03-05T03:29:04;7.80;99.90
6988;DHT22;3534;49.960;8.018;2023-03-05T03:31:32;7.90;99.90
6988;DHT22;3534;49.960;8.018;2023-03-05T03:33:59;7.90;99.90
6988;DHT22;3534;49.960;8.018;2023-03-05T03:36:25;7.90;99.90
6988;DHT22;3534;49.960;8.018;2023-03-05T03:38:52;7.80;99.90
6988;DHT22;3534;49.960;8.018;2023-03-05T03:41:19;7.70;99.90
6988;DHT22;3534;49.960;8.018;2023-03-05T03:43:45;7.50;99.90
6988;DHT22;3534;49.960;8.018;2023-03-05T03:46:12;7.50;99.90
6988;DHT22;3534;49.960;8.018;2023-03-05T03:48:40;7.50;99.90
6988;DHT22;3534;49.960;8.018;2023-03-05T03:51:07;7.50;99.90
6988;DHT22;3534;49.960;8.018;2023-03-05T03:53:34;7.50;99.90
6988;DHT22;3534;49.960;8.018;2023-03-05T03:56:00;7.60;99.90
6988;DHT22;3534;49.960;8.018;2023-03-05T03:58:28;7.50;99.90
6988;DHT22;3534;49.960;8.018;2023-03-05T04:00:55;7.50;99.90
6988;DHT22;3534;49.960;8.018;2023-03-05T04:03:21;7.40;99.90
6988;DHT22;3534;49.960;8.018;2023-03-05T04:05:49;7.50;99.90
6988;DHT22;3534;49.960;8.018;2023-03-05T04:08:16;7.50;99.90
6988;DHT22;3534;49.960;8.018;2023-03-05T04:10:43;7.60;99.90
6988;DHT22;3534;49.960;8.018;2023-03-05T04:13:09;7.60;99.90
6988;DHT22;3534;49.960;8.018;2023-03-05T04:15:36;7.70;99.90
6988;DHT22;3534;49.960;8.018;2023-03-05T04:18:03;7.70;99.90
6988;DHT22;3534;49.960;8.018;2023-03-05T04:20:30;7.70;99.90
6988;DHT22;3534;49.960;8.018;2023-03-05T04:22:58;7.80;99.90
6988;DHT22;3534;49.960;8.018;2023-03-05T04:25:24;7.70;99.90
6988;DHT22;3534;49.960;8.018;2023-03-05T04:27:51;7.60;99.90
6988;DHT22;3534;49.960;8.018;2023-03-05T04:30:18;7.60;99.90
6988;DHT22;3534;49.960;8.018;2023-03-05T04:32:45;7.50;99.90
6988;DHT22;3534;49.960;8.018;2023-03-05T04:35:12;7.40;99.90
6988;DHT22;3534;49.960;8.018;2023-03-05T04:37:38;7.30;99.90
6988;DHT22;3534;49.960;8.018;2023-03-05T04:40:08;7.10;99.90
6988;DHT22;3534;49.960;8.018;2023-03-05T04:42:34;7.00;99.90
6988;DHT22;3534;49.960;8.018;2023-03-05T04:45:01;6.90;99.90
6988;DHT22;3534;49.960;8.018;2023-03-05T04:47:28;6.80;99.90
6988;DHT22;3534;49.960;8.018;2023-03-05T04:49:55;6.70;99.90
6988;DHT22;3534;49.960;8.018;2023-03-05T04:52:21;6.60;99.90
6988;DHT22;3534;49.960;8.018;2023-03-05T04:54:48;6.60;99.90
6988;DHT22;3534;49.960;8.018;2023-03-05T04:57:16;6.70;99.90
6988;DHT22;3534;49.960;8.018;2023-03-05T04:59:43;6.70;99.90
6988;DHT22;3534;49.960;8.018;2023-03-05T05:02:10;6.70;99.90
6988;DHT22;3534;49.960;8.018;2023-03-05T05:04:37;6.70;99.90
6988;DHT22;3534;49.960;8.018;2023-03-05T05:07:04;6.70;99.90
6988;DHT22;3534;49.960;8.018;2023-03-05T05:09:32;6.70;99.90
6988;DHT22;3534;49.960;8.018;2023-03-05T05:11:59;6.70;99.90
6988;DHT22;3534;49.960;8.018;2023-03-05T05:14:27;6.70;99.90
6988;DHT22;3534;49.960;8.018;2023-03-05T05:16:54;6.80;99.90
6988;DHT22;3534;49.960;8.018;2023-03-05T05:19:20;6.90;99.90
6988;DHT22;3534;49.960;8.018;2023-03-05T05:21:47;7.00;99.90
6988;DHT22;3534;49.960;8.018;2023-03-05T05:24:14;7.10;99.90
6988;DHT22;3534;49.960;8.018;2023-03-05T05:26:40;7.10;99.90
6988;DHT22;3534;49.960;8.018;2023-03-05T05:29:07;7.00;99.90
6988;DHT22;3534;49.960;8.018;2023-03-05T05:31:36;7.00;99.90
6988;DHT22;3534;49.960;8.018;2023-03-05T05:34:03;7.00;99.90
6988;DHT22;3534;49.960;8.018;2023-03-05T05:36:30;7.10;99.90
6988;DHT22;3534;49.960;8.018;2023-03-05T05:38:57;7.10;99.90
6988;DHT22;3534;49.960;8.018;2023-03-05T05:41:23;7.10;99.90
6988;DHT22;3534;49.960;8.018;2023-03-05T05:43:50;7.10;99.90
6988;DHT22;3534;49.960;8.018;2023-03-05T05:46:18;7.10;99.90
6988;DHT22;3534;49.960;8.018;2023-03-05T05:48:47;7.10;99.90
6988;DHT22;3534;49.960;8.018;2023-03-05T05:51:16;7.10;99.90
6988;DHT22;3534;49.960;8.018;2023-03-05T05:53:44;7.00;99.90
6988;DHT22;3534;49.960;8.018;2023-03-05T05:56:12;7.00;99.90
6988;DHT22;3534;49.960;8.018;2023-03-05T05:58:40;6.90;99.90
6988;DHT22;3534;49.960;8.018;2023-03-05T06:01:14;6.90;99.90
6988;DHT22;3534;49.960;8.018;2023-03-05T06:03:41;6.80;99.90
6988;DHT22;3534;49.960;8.018;2023-03-05T06:06:11;6.80;99.90
6988;DHT22;3534;49.960;8.018;2023-03-05T06:08:38;6.90;99.90
6988;DHT22;3534;49.960;8.018;2023-03-05T06:11:05;7.00;99.90
6988;DHT22;3534;49.960;8.018;2023-03-05T06:13:32;7.00;99.90
6988;DHT22;3534;49.960;8.018;2023-03-05T06:16:01;7.10;99.90
6988;DHT22;3534;49.960;8.018;2023-03-05T06:18:28;7.20;99.90
6988;DHT22;3534;49.960;8.018;2023-03-05T06:20:55;7.10;99.90
6988;DHT22;3534;49.960;8.018;2023-03-05T06:23:24;7.10;99.90
6988;DHT22;3534;49.960;8.018;2023-03-05T06:25:51;7.10;99.90
6988;DHT22;3534;49.960;8.018;2023-03-05T06:28:19;7.10;99.90
6988;DHT22;3534;49.960;8.018;2023-03-05T06:30:46;7.10;99.90
6988;DHT22;3534;49.960;8.018;2023-03-05T06:33:13;7.10;99.90
6988;DHT22;3534;49.960;8.018;2023-03-05T06:35:39;7.10;99.90
6988;DHT22;3534;49.960;8.018;2023-03-05T06:38:07;7.10;99.90
6988;DHT22;3534;49.960;8.018;2023-03-05T06:40:37;7.20;99.90
6988;DHT22;3534;49.960;8.018;2023-03-05T06:43:04;7.10;99.90
6988;DHT22;3534;49.960;8.018;2023-03-05T06:45:31;7.20;99.90
6988;DHT22;3534;49.960;8.018;2023-03-05T06:47:58;7.20;99.90
6988;DHT22;3534;49.960;8.018;2023-03-05T06:50:24;7.20;99.90
6988;DHT22;3534;49.960;8.018;2023-03-05T06:52:51;7.30;99.90
6988;DHT22;3534;49.960;8.018;2023-03-05T06:55:18;7.40;99.90
6988;DHT22;3534;49.960;8.018;2023-03-05T06:57:47;7.40;99.90
6988;DHT22;3534;49.960;8.018;2023-03-05T07:00:14;7.40;99.90
6988;DHT22;3534;49.960;8.018;2023-03-05T07:02:41;7.50;99.90
6988;DHT22;3534;49.960;8.018;2023-03-05T07:05:08;7.50;99.90
6988;DHT22;3534;49.960;8.018;2023-03-05T07:07:35;7.60;99.90
6988;DHT22;3534;49.960;8.018;2023-03-05T07:10:03;7.50;99.90
6988;DHT22;3534;49.960;8.018;2023-03-05T07:12:31;7.50;99.90
6988;DHT22;3534;49.960;8.018;2023-03-05T07:15:00;7.60;99.90
6988;DHT22;3534;49.960;8.018;2023-03-05T07:17:26;7.60;99.90
6988;DHT22;3534;49.960;8.018;2023-03-05T07:19:53;7.60;99.90
6988;DHT22;3534;49.960;8.018;2023-03-05T07:22:20;7.60;99.90
6988;DHT22;3534;49.960;8.018;2023-03-05T07:24:46;7.50;99.90
6988;DHT22;3534;49.960;8.018;2023-03-05T07:27:13;7.30;99.90
6988;DHT22;3534;49.960;8.018;2023-03-05T07:29:40;7.20;99.90
6988;DHT22;3534;49.960;8.018;2023-03-05T07:32:08;7.10;99.90
6988;DHT22;3534;49.960;8.018;2023-03-05T07:34:36;7.00;99.90
6988;DHT22;3534;49.960;8.018;2023-03-05T07:37:03;7.00;99.90
6988;DHT22;3534;49.960;8.018;2023-03-05T07:39:30;6.90;99.90
6988;DHT22;3534;49.960;8.018;2023-03-05T07:41:56;6.90;99.90
6988;DHT22;3534;49.960;8.018;2023-03-05T07:44:23;6.90;99.90
6988;DHT22;3534;49.960;8.018;2023-03-05T07:46:50;6.90;99.90
6988;DHT22;3534;49.960;8.018;2023-03-05T07:49:18;6.90;99.90
6988;DHT22;3534;49.960;8.018;2023-03-05T07:51:44;7.00;99.90
6988;DHT22;3534;49.960;8.018;2023-03-05T07:54:11;6.90;99.90
6988;DHT22;3534;49.960;8.018;2023-03-05T07:56:38;6.90;99.90
6988;DHT22;3534;49.960;8.018;2023-03-05T07:59:06;7.00;99.90
6988;DHT22;3534;49.960;8.018;2023-03-05T08:01:34;7.10;99.90
6988;DHT22;3534;49.960;8.018;2023-03-05T08:04:01;7.00;99.90
6988;DHT22;3534;49.960;8.018;2023-03-05T08:06:29;7.10;99.90
6988;DHT22;3534;49.960;8.018;2023-03-05T08:08:57;7.10;99.90
6988;DHT22;3534;49.960;8.018;2023-03-05T08:11:24;7.00;99.90
6988;DHT22;3534;49.960;8.018;2023-03-05T08:13:52;7.00;99.90
6988;DHT22;3534;49.960;8.018;2023-03-05T08:16:20;7.00;99.90
6988;DHT22;3534;49.960;8.018;2023-03-05T08:18:53;6.90;99.90
6988;DHT22;3534;49.960;8.018;2023-03-05T08:21:21;6.80;99.90
6988;DHT22;3534;49.960;8.018;2023-03-05T08:23:52;6.80;99.90
6988;DHT22;3534;49.960;8.018;2023-03-05T08:26:22;6.80;99.90
6988;DHT22;3534;49.960;8.018;2023-03-05T08:28:49;6.80;99.90
6988;DHT22;3534;49.960;8.018;2023-03-05T08:31:17;6.80;99.90
6988;DHT22;3534;49.960;8.018;2023-03-05T08:33:46;6.70;99.90
6988;DHT22;3534;49.960;8.018;2023-03-05T08:36:13;6.70;99.90
6988;DHT22;3534;49.960;8.018;2023-03-05T08:38:39;6.70;99.90
6988;DHT22;3534;49.960;8.018;2023-03-05T08:41:07;6.70;99.90
6988;DHT22;3534;49.960;8.018;2023-03-05T08:43:34;6.70;99.90
6988;DHT22;3534;49.960;8.018;2023-03-05T08:46:01;6.60;99.90
6988;DHT22;3534;49.960;8.018;2023-03-05T08:48:28;6.60;99.90
6988;DHT22;3534;49.960;8.018;2023-03-05T08:50:56;6.70;99.90
6988;DHT22;3534;49.960;8.018;2023-03-05T08:53:23;6.70;99.90
6988;DHT22;3534;49.960;8.018;2023-03-05T08:55:53;6.80;99.90
6988;DHT22;3534;49.960;8.018;2023-03-05T08:58:22;6.70;99.90
6988;DHT22;3534;49.960;8.018;2023-03-05T09:00:49;6.60;99.90
6988;DHT22;3534;49.960;8.018;2023-03-05T09:03:16;6.60;99.90
6988;DHT22;3534;49.960;8.018;2023-03-05T09:05:43;6.50;99.90
6988;DHT22;3534;49.960;8.018;2023-03-05T09:08:09;6.50;99.90
6988;DHT22;3534;49.960;8.018;2023-03-05T09:10:36;6.50;99.90
6988;DHT22;3534;49.960;8.018;2023-03-05T09:13:03;6.40;99.90
6988;DHT22;3534;49.960;8.018;2023-03-05T09:15:31;6.40;99.90
6988;DHT22;3534;49.960;8.018;2023-03-05T09:17:58;6.40;99.90
6988;DHT22;3534;49.960;8.018;2023-03-05T09:20:25;6.50;99.90
6988;DHT22;3534;49.960;8.018;2023-03-05T09:22:51;6.50;99.90
6988;DHT22;3534;49.960;8.018;2023-03-05T09:25:18;6.50;99.90
6988;DHT22;3534;49.960;8.018;2023-03-05T09:27:45;6.60;99.90
6988;DHT22;3534;49.960;8.018;2023-03-05T09:30:12;6.60;99.90
6988;DHT22;3534;49.960;8.018;2023-03-05T09:32:41;6.70;99.90
6988;DHT22;3534;49.960;8.018;2023-03-05T09:35:08;6.70;99.90
6988;DHT22;3534;49.960;8.018;2023-03-05T09:37:35;6.80;99.90
6988;DHT22;3534;49.960;8.018;2023-03-05T09:40:02;6.80;99.90
6988;DHT22;3534;49.960;8.018;2023-03-05T09:42:44;6.80;99.90
6988;DHT22;3534;49.960;8.018;2023-03-05T09:45:20;6.90;99.90
6988;DHT22;3534;49.960;8.018;2023-03-05T09:47:56;7.00;99.90
6988;DHT22;3534;49.960;8.018;2023-03-05T09:50:34;7.10;99.90
6988;DHT22;3534;49.960;8.018;2023-03-05T09:53:07;7.10;99.90
6988;DHT22;3534;49.960;8.018;2023-03-05T09:55:38;7.10;99.90
6988;DHT22;3534;49.960;8.018;2023-03-05T09:58:12;7.00;99.90
6988;DHT22;3534;49.960;8.018;2023-03-05T10:00:41;7.00;99.90
6988;DHT22;3534;49.960;8.018;2023-03-05T10:03:16;7.00;99.90
6988;DHT22;3534;49.960;8.018;2023-03-05T10:06:04;6.90;99.90
6988;DHT22;3534;49.960;8.018;2023-03-05T10:08:44;6.80;99.90
6988;DHT22;3534;49.960;8.018;2023-03-05T10:11:33;6.70;99.90
6988;DHT22;3534;49.960;8.018;2023-03-05T10:14:02;6.70;99.90
6988;DHT22;3534;49.960;8.018;2023-03-05T10:16:59;6.70;99.90
6988;DHT22;3534;49.960;8.018;2023-03-05T10:19:44;6.70;99.90
6988;DHT22;3534;49.960;8.018;2023-03-05T10:22:19;6.60;99.90
6988;DHT22;3534;49.960;8.018;2023-03-05T10:25:02;6.50;99.90
6988;DHT22;3534;49.960;8.018;2023-03-05T10:27:41;6.50;99.90
6988;DHT22;3534;49.960;8.018;2023-03-05T10:30:26;6.40;99.90
6988;DHT22;3534;49.960;8.018;2023-03-05T10:32:58;6.30;99.90
6988;DHT22;3534;49.960;8.018;2023-03-05T10:35:43;6.30;99.90
6988;DHT22;3534;49.960;8.018;2023-03-05T10:38:25;6.30;99.90
6988;DHT22;3534;49.960;8.018;2023-03-05T10:41:01;6.30;99.90
6988;DHT22;3534;49.960;8.018;2023-03-05T10:43:36;6.40;99.90
6988;DHT22;3534;49.960;8.018;2023-03-05T10:46:12;6.50;99.90
6988;DHT22;3534;49.960;8.018;2023-03-05T10:48:45;6.60;99.90
6988;DHT22;3534;49.960;8.018;2023-03-05T10:51:18;6.70;99.90
6988;DHT22;3534;49.960;8.018;2023-03-05T10:53:51;6.80;99.90
6988;DHT22;3534;49.960;8.018;2023-03-05T10:56:22;6.80;99.90
6988;DHT22;3534;49.960;8.018;2023-03-05T10:58:49;6.80;99.90
6988;DHT22;3534;49.960;8.018;2023-03-05T11:01:22;6.70;99.90
6988;DHT22;3534;49.960;8.018;2023-03-05T11:03:52;6.90;99.90
6988;DHT22;3534;49.960;8.018;2023-03-05T11:06:30;6.90;99.90
6988;DHT22;3534;49.960;8.018;2023-03-05T11:09:15;6.80;99.90
6988;DHT22;3534;49.960;8.018;2023-03-05T11:11:42;6.90;99.90
6988;DHT22;3534;49.960;8.018;2023-03-05T11:14:22;7.00;99.90
6988;DHT22;3534;49.960;8.018;2023-03-05T11:16:54;7.00;99.90
6988;DHT22;3534;49.960;8.018;2023-03-05T11:19:24;7.00;99.90
6988;DHT22;3534;49.960;8.018;2023-03-05T11:22:15;7.10;99.90
6988;DHT22;3534;49.960;8.018;2023-03-05T11:24:43;7.10;99.90
6988;DHT22;3534;49.960;8.018;2023-03-05T11:27:29;7.20;99.90
6988;DHT22;3534;49.960;8.018;2023-03-05T11:29:57;7.30;99.90
6988;DHT22;3534;49.960;8.018;2023-03-05T11:32:27;7.20;99.90
6988;DHT22;3534;49.960;8.018;2023-03-05T11:34:55;7.30;99.90
6988;DHT22;3534;49.960;8.018;2023-03-05T11:37:25;7.30;99.90
6988;DHT22;3534;49.960;8.018;2023-03-05T11:40:15;7.30;99.90
6988;DHT22;3534;49.960;8.018;2023-03-05T11:42:44;7.40;99.90
6988;DHT22;3534;49.960;8.018;2023-03-05T11:45:14;7.50;99.90
6988;DHT22;3534;49.960;8.018;2023-03-05T11:47:45;7.60;99.90
6988;DHT22;3534;49.960;8.018;2023-03-05T11:50:19;7.60;99.90
6988;DHT22;3534;49.960;8.018;2023-03-05T11:52:49;7.70;99.90
6988;DHT22;3534;49.960;8.018;2023-03-05T11:55:18;7.70;99.90
6988;DHT22;3534;49.960;8.018;2023-03-05T11:57:49;7.70;99.90
6988;DHT22;3534;49.960;8.018;2023-03-05T12:00:23;7.70;99.90
6988;DHT22;3534;49.960;8.018;2023-03-05T12:02:52;7.70;99.90
6988;DHT22;3534;49.960;8.018;2023-03-05T12:05:20;7.80;99.90
6988;DHT22;3534;49.960;8.018;2023-03-05T12:07:51;7.70;99.90
6988;DHT22;3534;49.960;8.018;2023-03-05T12:10:22;7.70;99.90
6988;DHT22;3534;49.960;8.018;2023-03-05T12:12:54;7.70;99.90
6988;DHT22;3534;49.960;8.018;2023-03-05T12:15:41;7.80;99.90
6988;DHT22;3534;49.960;8.018;2023-03-05T12:18:30;7.80;99.90
6988;DHT22;3534;49.960;8.018;2023-03-05T12:21:06;7.80;99.90
6988;DHT22;3534;49.960;8.018;2023-03-05T12:23:49;7.90;99.90
6988;DHT22;3534;49.960;8.018;2023-03-05T12:26:17;7.90;99.90
6988;DHT22;3534;49.960;8.018;2023-03-05T12:28:57;7.90;99.90
6988;DHT22;3534;49.960;8.018;2023-03-05T12:31:42;7.90;99.90
6988;DHT22;3534;49.960;8.018;2023-03-05T12:38:05;7.80;99.90
6988;DHT22;3534;49.960;8.018;2023-03-05T12:40:40;7.90;99.90
6988;DHT22;3534;49.960;8.018;2023-03-05T12:43:27;7.90;99.90
6988;DHT22;3534;49.960;8.018;2023-03-05T12:46:21;8.00;99.90
6988;DHT22;3534;49.960;8.018;2023-03-05T12:48:48;8.10;99.90
6988;DHT22;3534;49.960;8.018;2023-03-05T12:51:42;8.10;99.90
6988;DHT22;3534;49.960;8.018;2023-03-05T12:54:29;8.10;99.90
6988;DHT22;3534;49.960;8.018;2023-03-05T12:56:59;8.10;99.90
6988;DHT22;3534;49.960;8.018;2023-03-05T12:59:39;8.20;99.90
6988;DHT22;3534;49.960;8.018;2023-03-05T13:02:21;8.20;99.90
6988;DHT22;3534;49.960;8.018;2023-03-05T13:04:49;8.20;99.90
6988;DHT22;3534;49.960;8.018;2023-03-05T13:07:18;8.30;99.90
6988;DHT22;3534;49.960;8.018;2023-03-05T13:09:52;8.30;99.90
6988;DHT22;3534;49.960;8.018;2023-03-05T13:12:22;8.40;99.90
6988;DHT22;3534;49.960;8.018;2023-03-05T13:14:57;8.40;99.90
6988;DHT22;3534;49.960;8.018;2023-03-05T13:17:30;8.40;99.90
6988;DHT22;3534;49.960;8.018;2023-03-05T13:19:59;8.50;99.90
6988;DHT22;3534;49.960;8.018;2023-03-05T13:22:27;8.50;99.90
6988;DHT22;3534;49.960;8.018;2023-03-05T13:25:14;8.50;99.90
6988;DHT22;3534;49.960;8.018;2023-03-05T13:27:42;8.50;99.90
6988;DHT22;3534;49.960;8.018;2023-03-05T13:30:22;8.50;99.90
6988;DHT22;3534;49.960;8.018;2023-03-05T13:32:51;8.60;99.90
6988;DHT22;3534;49.960;8.018;2023-03-05T13:35:18;8.60;99.90
6988;DHT22;3534;49.960;8.018;2023-03-05T13:37:47;8.60;99.90
6988;DHT22;3534;49.960;8.018;2023-03-05T13:40:18;8.60;99.90
6988;DHT22;3534;49.960;8.018;2023-03-05T13:42:47;8.50;99.90
6988;DHT22;3534;49.960;8.018;2023-03-05T13:45:24;8.50;99.90
6988;DHT22;3534;49.960;8.018;2023-03-05T13:47:53;8.60;99.90
6988;DHT22;3534;49.960;8.018;2023-03-05T13:50:23;8.60;99.90
6988;DHT22;3534;49.960;8.018;2023-03-05T13:52:50;8.60;99.90
6988;DHT22;3534;49.960;8.018;2023-03-05T13:55:18;8.60;99.90
6988;DHT22;3534;49.960;8.018;2023-03-05T13:57:48;8.70;99.90
6988;DHT22;3534;49.960;8.018;2023-03-05T14:00:28;8.70;99.90
6988;DHT22;3534;49.960;8.018;2023-03-05T14:02:57;8.70;99.90
6988;DHT22;3534;49.960;8.018;2023-03-05T14:05:24;8.70;99.90
6988;DHT22;3534;49.960;8.018;2023-03-05T14:07:51;8.70;99.90
6988;DHT22;3534;49.960;8.018;2023-03-05T14:10:27;8.70;99.90
6988;DHT22;3534;49.960;8.018;2023-03-05T14:12:57;8.80;99.90
6988;DHT22;3534;49.960;8.018;2023-03-05T14:15:26;8.80;99.90
6988;DHT22;3534;49.960;8.018;2023-03-05T14:18:07;8.70;99.90
6988;DHT22;3534;49.960;8.018;2023-03-05T14:20:34;8.80;99.90
6988;DHT22;3534;49.960;8.018;2023-03-05T14:23:01;8.70;99.90
6988;DHT22;3534;49.960;8.018;2023-03-05T14:25:49;8.70;99.90
6988;DHT22;3534;49.960;8.018;2023-03-05T14:28:25;8.70;99.90
6988;DHT22;3534;49.960;8.018;2023-03-05T14:30:53;8.70;99.90
6988;DHT22;3534;49.960;8.018;2023-03-05T14:33:21;8.70;99.90
6988;DHT22;3534;49.960;8.018;2023-03-05T14:35:50;8.70;99.90
6988;DHT22;3534;49.960;8.018;2023-03-05T14:38:20;8.80;99.90
6988;DHT22;3534;49.960;8.018;2023-03-05T14:40:49;8.70;99.90
6988;DHT22;3534;49.960;8.018;2023-03-05T14:43:16;8.70;99.90
6988;DHT22;3534;49.960;8.018;2023-03-05T14:45:43;8.70;99.90
6988;DHT22;3534;49.960;8.018;2023-03-05T14:48:12;8.70;99.90
6988;DHT22;3534;49.960;8.018;2023-03-05T14:50:42;8.80;99.90
6988;DHT22;3534;49.960;8.018;2023-03-05T14:53:14;8.70;99.90
6988;DHT22;3534;49.960;8.018;2023-03-05T14:55:41;8.70;99.90
6988;DHT22;3534;49.960;8.018;2023-03-05T14:58:13;8.70;99.90
6988;DHT22;3534;49.960;8.018;2023-03-05T15:00:40;8.70;99.90
6988;DHT22;3534;49.960;8.018;2023-03-05T15:03:09;8.70;99.90
6988;DHT22;3534;49.960;8.018;2023-03-05T15:05:36;8.70;99.90
6988;DHT22;3534;49.960;8.018;2023-03-05T15:08:03;8.70;99.90
6988;DHT22;3534;49.960;8.018;2023-03-05T15:10:30;8.70;99.90
6988;DHT22;3534;49.960;8.018;2023-03-05T15:12:57;8.70;99.90
6988;DHT22;3534;49.960;8.018;2023-03-05T15:15:25;8.70;99.90
6988;DHT22;3534;49.960;8.018;2023-03-05T15:17:52;8.60;99.90
6988;DHT22;3534;49.960;8.018;2023-03-05T15:20:22;8.60;99.90
6988;DHT22;3534;49.960;8.018;2023-03-05T15:22:49;8.50;99.90
6988;DHT22;3534;49.960;8.018;2023-03-05T15:25:17;8.50;99.90
6988;DHT22;3534;49.960;8.018;2023-03-05T15:27:44;8.30;99.90
6988;DHT22;3534;49.960;8.018;2023-03-05T15:30:20;8.30;99.90
6988;DHT22;3534;49.960;8.018;2023-03-05T15:32:49;8.30;99.90
6988;DHT22;3534;49.960;8.018;2023-03-05T15:35:16;8.30;99.90
6988;DHT22;3534;49.960;8.018;2023-03-05T15:37:43;8.30;99.90
6988;DHT22;3534;49.960;8.018;2023-03-05T15:40:11;8.30;99.90
6988;DHT22;3534;49.960;8.018;2023-03-05T15:42:38;8.30;99.90
6988;DHT22;3534;49.960;8.018;2023-03-05T15:45:06;8.30;99.90
6988;DHT22;3534;49.960;8.018;2023-03-05T15:47:32;8.40;99.90
6988;DHT22;3534;49.960;8.018;2023-03-05T15:50:01;8.40;99.90
6988;DHT22;3534;49.960;8.018;2023-03-05T15:52:27;8.40;99.90
6988;DHT22;3534;49.960;8.018;2023-03-05T15:54:54;8.40;99.90
6988;DHT22;3534;49.960;8.018;2023-03-05T15:57:21;8.40;99.90
6988;DHT22;3534;49.960;8.018;2023-03-05T15:59:48;8.50;99.90
6988;DHT22;3534;49.960;8.018;2023-03-05T16:02:14;8.50;99.90
6988;DHT22;3534;49.960;8.018;2023-03-05T16:04:41;8.50;99.90
6988;DHT22;3534;49.960;8.018;2023-03-05T16:07:10;8.60;99.90
6988;DHT22;3534;49.960;8.018;2023-03-05T16:09:39;8.60;99.90
6988;DHT22;3534;49.960;8.018;2023-03-05T16:12:09;8.60;99.90
6988;DHT22;3534;49.960;8.018;2023-03-05T16:14:38;8.50;99.90
6988;DHT22;3534;49.960;8.018;2023-03-05T16:17:06;8.50;99.90
6988;DHT22;3534;49.960;8.018;2023-03-05T16:19:34;8.50;99.90
6988;DHT22;3534;49.960;8.018;2023-03-05T16:22:02;8.50;99.90
6988;DHT22;3534;49.960;8.018;2023-03-05T16:24:30;8.60;99.90
6988;DHT22;3534;49.960;8.018;2023-03-05T16:26:57;8.60;99.90
6988;DHT22;3534;49.960;8.018;2023-03-05T16:29:24;8.60;99.90
6988;DHT22;3534;49.960;8.018;2023-03-05T16:31:51;8.70;99.90
6988;DHT22;3534;49.960;8.018;2023-03-05T16:34:18;8.70;99.90
6988;DHT22;3534;49.960;8.018;2023-03-05T16:36:46;8.70;99.90